Ranong, Ranong Airport (VTSR)

NameRanong Airport
CityRanong
CountryThailand
ICAOVTSR
IATAUNN
Altitude17 m
CoordinatesGoogle Map
Live Air TrafficLiveATC.net
METARVTSR 180100Z 15004KT 080V210 9999 BKN020 27/23 Q1011 NOSIG
2019-01-18 01:00:00 Wind: Southeast (150°) 2.06 m/s - Visibility: > 10000 m - Temperature: 27 °C - Dew point: 23 °C - Humidity: 78.8% - Pressure: 1011 hPa
Statistics

The table below shows the detailed information of all flights to/from Ranong, Ranong Airport (VTSR).